DAL1054 KRDU-KBOS
Flight info
| Callsign | DAL1054 |
|---|---|
| Flight time | 1h 30m |
| Altitude | 35000 |
| Route | BEXGO5 BOUSY GEARS BBOBO Q22 RBV Q419 JFK ROBUC3 |
| Aircraft | A320/M-SDE3FGHIRWY/LB1 |
Departure
| Time | 2026-05-05 23:18 |
|---|---|
| Airport | Raleigh-Durham International Airport (KRDU) |
Arrival
| Time | 2026-05-06 00:48 |
|---|---|
| Airport | Boston Logan International Airport (KBOS) |
| Time | Latitude | Longitude | Altitude | Speed | Heading |
|---|---|---|---|---|---|
| 2026-05-05 22:47 | 35.87895 | -78.79231 | 413 ft | 0 kts | 137° |
| 2026-05-05 23:07 | 35.87906 | -78.79243 | 414 ft | 4 kts | 139° |
| 2026-05-05 23:07 | 35.87926 | -78.79265 | 425 ft | 4 kts | 128° |
| 2026-05-05 23:07 | 35.87936 | -78.79291 | 419 ft | 4 kts | 76° |
| 2026-05-05 23:07 | 35.87932 | -78.79304 | 416 ft | 1 kts | 46° |
| 2026-05-05 23:12 | 35.87939 | -78.79295 | 424 ft | 5 kts | 45° |
| 2026-05-05 23:12 | 35.87983 | -78.79240 | 421 ft | 13 kts | 44° |
| 2026-05-05 23:13 | 35.88055 | -78.79151 | 425 ft | 14 kts | 44° |
| 2026-05-05 23:13 | 35.88133 | -78.79053 | 421 ft | 19 kts | 47° |
| 2026-05-05 23:13 | 35.88242 | -78.78915 | 421 ft | 25 kts | 47° |
| 2026-05-05 23:13 | 35.88374 | -78.78752 | 419 ft | 29 kts | 49° |
| 2026-05-05 23:14 | 35.88517 | -78.78574 | 415 ft | 29 kts | 46° |
| 2026-05-05 23:14 | 35.88660 | -78.78400 | 426 ft | 28 kts | 39° |
| 2026-05-05 23:14 | 35.88804 | -78.78221 | 420 ft | 31 kts | 46° |
| 2026-05-05 23:14 | 35.88956 | -78.78035 | 417 ft | 29 kts | 47° |
| 2026-05-05 23:15 | 35.89043 | -78.77848 | 414 ft | 19 kts | 49° |
| 2026-05-05 23:15 | 35.89132 | -78.77738 | 418 ft | 17 kts | 44° |
| 2026-05-05 23:15 | 35.89188 | -78.77672 | 415 ft | 1 kts | 44° |
| 2026-05-05 23:15 | 35.89190 | -78.77670 | 417 ft | 1 kts | 43° |
| 2026-05-05 23:16 | 35.89196 | -78.77663 | 415 ft | 1 kts | 41° |
| 2026-05-05 23:16 | 35.89209 | -78.77652 | 419 ft | 6 kts | 30° |
| 2026-05-05 23:16 | 35.89270 | -78.77690 | 420 ft | 13 kts | 312° |
| 2026-05-05 23:16 | 35.89326 | -78.77760 | 429 ft | 10 kts | 316° |
| 2026-05-05 23:17 | 35.89351 | -78.77825 | 422 ft | 10 kts | 257° |
| 2026-05-05 23:17 | 35.89302 | -78.77904 | 420 ft | 15 kts | 225° |
| 2026-05-05 23:17 | 35.89087 | -78.78171 | 423 ft | 78 kts | 224° |
| 2026-05-05 23:17 | 35.88566 | -78.78814 | 430 ft | 133 kts | 225° |
| 2026-05-05 23:18 | 35.87805 | -78.79733 | 635 ft | 160 kts | 222° |
| 2026-05-05 23:18 | 35.87030 | -78.80706 | 1245 ft | 160 kts | 227° |
| 2026-05-05 23:18 | 35.86255 | -78.81695 | 1909 ft | 161 kts | 221° |
| 2026-05-05 23:18 | 35.85456 | -78.82736 | 2291 ft | 179 kts | 224° |
| 2026-05-05 23:19 | 35.84919 | -78.84265 | 2487 ft | 220 kts | 262° |
| 2026-05-05 23:19 | 35.85074 | -78.86279 | 2836 ft | 246 kts | 266° |
| 2026-05-05 23:19 | 35.85241 | -78.88441 | 3412 ft | 266 kts | 283° |
| 2026-05-05 23:19 | 35.86320 | -78.90384 | 4115 ft | 283 kts | 310° |
| 2026-05-05 23:20 | 35.87725 | -78.92059 | 5174 ft | 280 kts | 312° |
| 2026-05-05 23:20 | 35.89254 | -78.93539 | 6114 ft | 287 kts | 330° |
| 2026-05-05 23:20 | 35.91240 | -78.94009 | 6996 ft | 300 kts | 2° |
| 2026-05-05 23:20 | 35.93214 | -78.93141 | 7771 ft | 309 kts | 35° |
| 2026-05-05 23:21 | 35.94633 | -78.91156 | 8567 ft | 312 kts | 60° |
| 2026-05-05 23:21 | 35.95803 | -78.88890 | 9388 ft | 315 kts | 55° |
| 2026-05-05 23:21 | 35.97127 | -78.86721 | 10165 ft | 319 kts | 51° |
| 2026-05-05 23:21 | 35.98575 | -78.84546 | 10481 ft | 340 kts | 49° |
| 2026-05-05 23:22 | 36.00162 | -78.82252 | 10667 ft | 363 kts | 49° |
| 2026-05-05 23:22 | 36.01851 | -78.79823 | 10987 ft | 379 kts | 49° |
| 2026-05-05 23:22 | 36.03574 | -78.77321 | 11583 ft | 385 kts | 49° |
| 2026-05-05 23:22 | 36.05280 | -78.74805 | 11905 ft | 388 kts | 49° |
| 2026-05-05 23:23 | 36.07024 | -78.72194 | 11992 ft | 389 kts | 50° |
| 2026-05-05 23:23 | 36.08733 | -78.69607 | 12009 ft | 388 kts | 50° |
| 2026-05-05 23:23 | 36.10436 | -78.67020 | 11998 ft | 388 kts | 50° |
| 2026-05-05 23:23 | 36.12115 | -78.64471 | 11998 ft | 387 kts | 50° |
| 2026-05-05 23:24 | 36.13837 | -78.61858 | 12001 ft | 387 kts | 50° |
| 2026-05-05 23:24 | 36.15518 | -78.59315 | 12002 ft | 387 kts | 50° |
| 2026-05-05 23:24 | 36.17221 | -78.56740 | 11999 ft | 387 kts | 50° |
| 2026-05-05 23:24 | 36.18923 | -78.54161 | 11997 ft | 387 kts | 50° |
| 2026-05-05 23:25 | 36.20624 | -78.51579 | 12006 ft | 387 kts | 50° |
| 2026-05-05 23:25 | 36.22332 | -78.48983 | 12271 ft | 392 kts | 50° |
| 2026-05-05 23:25 | 36.24055 | -78.46363 | 13042 ft | 393 kts | 50° |
| 2026-05-05 23:25 | 36.25792 | -78.43725 | 13764 ft | 396 kts | 50° |
| 2026-05-05 23:26 | 36.27649 | -78.41199 | 14359 ft | 398 kts | 41° |
| 2026-05-05 23:26 | 36.29803 | -78.39037 | 14952 ft | 400 kts | 34° |
| 2026-05-05 23:26 | 36.32042 | -78.36967 | 15549 ft | 403 kts | 34° |
| 2026-05-05 23:26 | 36.34297 | -78.34879 | 16148 ft | 406 kts | 34° |
| 2026-05-05 23:27 | 36.36564 | -78.32774 | 16724 ft | 409 kts | 34° |
| 2026-05-05 23:27 | 36.38848 | -78.30645 | 17319 ft | 412 kts | 34° |
| 2026-05-05 23:27 | 36.41145 | -78.28501 | 17901 ft | 415 kts | 35° |
| 2026-05-05 23:27 | 36.43462 | -78.26335 | 18447 ft | 419 kts | 35° |
| 2026-05-05 23:28 | 36.45798 | -78.24147 | 18941 ft | 422 kts | 34° |
| 2026-05-05 23:28 | 36.48152 | -78.21946 | 19443 ft | 425 kts | 34° |
| 2026-05-05 23:28 | 36.50524 | -78.19728 | 19946 ft | 428 kts | 34° |
| 2026-05-05 23:28 | 36.52912 | -78.17489 | 20442 ft | 431 kts | 34° |
| 2026-05-05 23:29 | 36.55311 | -78.15230 | 20920 ft | 434 kts | 34° |
| 2026-05-05 23:29 | 36.57743 | -78.12982 | 21419 ft | 437 kts | 29° |
| 2026-05-05 23:29 | 36.60234 | -78.10834 | 22093 ft | 431 kts | 27° |
| 2026-05-05 23:29 | 36.62726 | -78.08766 | 22672 ft | 430 kts | 32° |
| 2026-05-05 23:30 | 36.65168 | -78.06606 | 23277 ft | 431 kts | 35° |
| 2026-05-05 23:30 | 36.67499 | -78.04205 | 23541 ft | 442 kts | 37° |
| 2026-05-05 23:30 | 36.69850 | -78.01646 | 23637 ft | 453 kts | 37° |
| 2026-05-05 23:30 | 36.72297 | -77.99155 | 23912 ft | 455 kts | 31° |
| 2026-05-05 23:31 | 36.74813 | -77.96757 | 24307 ft | 455 kts | 30° |
| 2026-05-05 23:31 | 36.77352 | -77.94383 | 24670 ft | 448 kts | 17° |
| 2026-05-05 23:31 | 36.79981 | -77.92396 | 25072 ft | 439 kts | 30° |
| 2026-05-05 23:31 | 36.82450 | -77.90255 | 25953 ft | 428 kts | 33° |
| 2026-05-05 23:32 | 36.84588 | -77.87615 | 26186 ft | 443 kts | 52° |
| 2026-05-05 23:32 | 36.86194 | -77.84293 | 26295 ft | 454 kts | 59° |
| 2026-05-05 23:32 | 36.87666 | -77.80765 | 26438 ft | 462 kts | 60° |
| 2026-05-05 23:32 | 36.89190 | -77.77180 | 26565 ft | 469 kts | 58° |
| 2026-05-05 23:33 | 36.90851 | -77.73648 | 26689 ft | 475 kts | 55° |
| 2026-05-05 23:33 | 36.92667 | -77.70179 | 26892 ft | 478 kts | 52° |
| 2026-05-05 23:33 | 36.94558 | -77.66821 | 27155 ft | 480 kts | 51° |
| 2026-05-05 23:33 | 36.96528 | -77.63440 | 27436 ft | 482 kts | 50° |
| 2026-05-05 23:34 | 36.98538 | -77.60006 | 27711 ft | 483 kts | 50° |
| 2026-05-05 23:34 | 37.00481 | -77.56638 | 27998 ft | 485 kts | 51° |
| 2026-05-05 23:34 | 37.02427 | -77.53196 | 28281 ft | 486 kts | 51° |
| 2026-05-05 23:34 | 37.04360 | -77.49716 | 28542 ft | 488 kts | 51° |
| 2026-05-05 23:35 | 37.06284 | -77.46213 | 28800 ft | 489 kts | 51° |
| 2026-05-05 23:35 | 37.08420 | -77.42913 | 29025 ft | 486 kts | 41° |
| 2026-05-05 23:35 | 37.10912 | -77.40105 | 29255 ft | 480 kts | 32° |
| 2026-05-05 23:35 | 37.13701 | -77.37852 | 29540 ft | 473 kts | 22° |
| 2026-05-05 23:36 | 37.16680 | -77.36198 | 29878 ft | 465 kts | 13° |
| 2026-05-05 23:36 | 37.19732 | -77.34899 | 30201 ft | 462 kts | 13° |
| 2026-05-05 23:36 | 37.22772 | -77.33596 | 30494 ft | 461 kts | 13° |
| 2026-05-05 23:36 | 37.25797 | -77.32283 | 30787 ft | 460 kts | 13° |
| 2026-05-05 23:37 | 37.28815 | -77.30964 | 31077 ft | 459 kts | 14° |
| 2026-05-05 23:37 | 37.31722 | -77.29229 | 31330 ft | 469 kts | 27° |
| 2026-05-05 23:37 | 37.34390 | -77.26845 | 31600 ft | 471 kts | 30° |
| 2026-05-05 23:37 | 37.37028 | -77.24423 | 31876 ft | 470 kts | 30° |
| 2026-05-05 23:38 | 37.39662 | -77.21988 | 32160 ft | 469 kts | 31° |
| 2026-05-05 23:38 | 37.42281 | -77.19557 | 32459 ft | 467 kts | 31° |
| 2026-05-05 23:38 | 37.44892 | -77.17130 | 32755 ft | 466 kts | 31° |
| 2026-05-05 23:38 | 37.47495 | -77.14712 | 33049 ft | 465 kts | 30° |
| 2026-05-05 23:39 | 37.50093 | -77.12302 | 33345 ft | 464 kts | 30° |
| 2026-05-05 23:39 | 37.52692 | -77.09896 | 33604 ft | 463 kts | 30° |
| 2026-05-05 23:39 | 37.55285 | -77.07499 | 33888 ft | 463 kts | 30° |
| 2026-05-05 23:39 | 37.57877 | -77.05096 | 34136 ft | 462 kts | 30° |
| 2026-05-05 23:40 | 37.60458 | -77.02696 | 34378 ft | 461 kts | 30° |
| 2026-05-05 23:40 | 37.63035 | -77.00294 | 34627 ft | 460 kts | 30° |
| 2026-05-05 23:40 | 37.65603 | -76.97901 | 34862 ft | 459 kts | 30° |
| 2026-05-05 23:40 | 37.68171 | -76.95509 | 34959 ft | 459 kts | 30° |
| 2026-05-05 23:41 | 37.73306 | -76.90717 | 34976 ft | 459 kts | 30° |
| 2026-05-05 23:41 | 37.78435 | -76.85912 | 34976 ft | 459 kts | 30° |
| 2026-05-05 23:42 | 37.83550 | -76.81111 | 34963 ft | 457 kts | 30° |
| 2026-05-05 23:42 | 37.88661 | -76.76314 | 34959 ft | 457 kts | 30° |
| 2026-05-05 23:43 | 37.93753 | -76.71537 | 34964 ft | 457 kts | 30° |
| 2026-05-05 23:43 | 37.98866 | -76.66726 | 34956 ft | 458 kts | 30° |
| 2026-05-05 23:44 | 38.03940 | -76.61940 | 34948 ft | 458 kts | 30° |
| 2026-05-05 23:44 | 38.09077 | -76.57077 | 34944 ft | 458 kts | 30° |
| 2026-05-05 23:45 | 38.14150 | -76.52270 | 34958 ft | 458 kts | 30° |
| 2026-05-05 23:45 | 38.19298 | -76.47406 | 34959 ft | 458 kts | 30° |
| 2026-05-05 23:46 | 38.24373 | -76.42593 | 34951 ft | 458 kts | 30° |
| 2026-05-05 23:46 | 38.29467 | -76.37736 | 34952 ft | 458 kts | 30° |
| 2026-05-05 23:47 | 38.34596 | -76.32838 | 34944 ft | 465 kts | 30° |
| 2026-05-05 23:47 | 38.39790 | -76.27884 | 34944 ft | 467 kts | 30° |
| 2026-05-05 23:48 | 38.44989 | -76.22902 | 34946 ft | 468 kts | 30° |
| 2026-05-05 23:48 | 38.50177 | -76.17916 | 34952 ft | 467 kts | 30° |
| 2026-05-05 23:49 | 38.55372 | -76.12929 | 34968 ft | 467 kts | 30° |
| 2026-05-05 23:49 | 38.60565 | -76.07934 | 34966 ft | 467 kts | 30° |
| 2026-05-05 23:50 | 38.65756 | -76.02929 | 34960 ft | 467 kts | 30° |
| 2026-05-05 23:50 | 38.70068 | -75.98757 | 34943 ft | 467 kts | 30° |
| 2026-05-05 23:51 | 38.75251 | -75.93738 | 34960 ft | 468 kts | 30° |
| 2026-05-05 23:51 | 38.80440 | -75.88719 | 34956 ft | 468 kts | 30° |
| 2026-05-05 23:52 | 38.85643 | -75.83671 | 34944 ft | 468 kts | 30° |
| 2026-05-05 23:52 | 38.90837 | -75.78613 | 34932 ft | 468 kts | 31° |
| 2026-05-05 23:53 | 38.96021 | -75.73552 | 34949 ft | 468 kts | 31° |
| 2026-05-05 23:53 | 39.01211 | -75.68485 | 34932 ft | 468 kts | 31° |
| 2026-05-05 23:54 | 39.06396 | -75.63413 | 34920 ft | 468 kts | 31° |
| 2026-05-05 23:54 | 39.11585 | -75.58334 | 34911 ft | 468 kts | 31° |
| 2026-05-05 23:55 | 39.16771 | -75.53241 | 34921 ft | 469 kts | 31° |
| 2026-05-05 23:55 | 39.21954 | -75.48124 | 34919 ft | 469 kts | 31° |
| 2026-05-05 23:56 | 39.27143 | -75.43001 | 34916 ft | 470 kts | 31° |
| 2026-05-05 23:56 | 39.32329 | -75.37882 | 34914 ft | 469 kts | 31° |
| 2026-05-05 23:57 | 39.37509 | -75.32760 | 34953 ft | 469 kts | 31° |
| 2026-05-05 23:57 | 39.42684 | -75.27630 | 34936 ft | 469 kts | 32° |
| 2026-05-05 23:58 | 39.47547 | -75.21911 | 34926 ft | 474 kts | 38° |
| 2026-05-05 23:58 | 39.52287 | -75.15972 | 34946 ft | 474 kts | 38° |
| 2026-05-05 23:59 | 39.57011 | -75.10009 | 34934 ft | 474 kts | 38° |
| 2026-05-05 23:59 | 39.61752 | -75.04051 | 34920 ft | 474 kts | 38° |
| 2026-05-06 00:00 | 39.66491 | -74.98114 | 34928 ft | 473 kts | 38° |
| 2026-05-06 00:00 | 39.71181 | -74.92217 | 34923 ft | 473 kts | 38° |
| 2026-05-06 00:01 | 39.75898 | -74.86270 | 34932 ft | 472 kts | 38° |
| 2026-05-06 00:01 | 39.80641 | -74.80282 | 34932 ft | 472 kts | 38° |
| 2026-05-06 00:02 | 39.85309 | -74.74359 | 34932 ft | 472 kts | 38° |
| 2026-05-06 00:02 | 39.90011 | -74.68392 | 34954 ft | 472 kts | 38° |
| 2026-05-06 00:03 | 39.94745 | -74.62378 | 34934 ft | 473 kts | 38° |
| 2026-05-06 00:03 | 39.99420 | -74.56424 | 34925 ft | 473 kts | 38° |
| 2026-05-06 00:04 | 40.04124 | -74.50424 | 34919 ft | 473 kts | 38° |
| 2026-05-06 00:04 | 40.08830 | -74.44415 | 34924 ft | 473 kts | 38° |
| 2026-05-06 00:05 | 40.15886 | -74.35361 | 34923 ft | 474 kts | 39° |
| 2026-05-06 00:06 | 40.20584 | -74.29315 | 34932 ft | 474 kts | 39° |
| 2026-05-06 00:06 | 40.25294 | -74.23253 | 34939 ft | 474 kts | 39° |
| 2026-05-06 00:07 | 40.30001 | -74.17181 | 34946 ft | 475 kts | 39° |
| 2026-05-06 00:07 | 40.34707 | -74.11094 | 34927 ft | 476 kts | 39° |
| 2026-05-06 00:08 | 40.39417 | -74.04996 | 34891 ft | 476 kts | 39° |
| 2026-05-06 00:08 | 40.44126 | -73.98881 | 34911 ft | 476 kts | 39° |
| 2026-05-06 00:09 | 40.48826 | -73.92762 | 34917 ft | 476 kts | 39° |
| 2026-05-06 00:09 | 40.53529 | -73.86629 | 34914 ft | 476 kts | 39° |
| 2026-05-06 00:10 | 40.58229 | -73.80481 | 34912 ft | 476 kts | 39° |
| 2026-05-06 00:10 | 40.62919 | -73.74325 | 34915 ft | 477 kts | 40° |
| 2026-05-06 00:11 | 40.67628 | -73.68158 | 34906 ft | 477 kts | 39° |
| 2026-05-06 00:11 | 40.69975 | -73.65082 | 34341 ft | 476 kts | 39° |
| 2026-05-06 00:11 | 40.72314 | -73.62009 | 33744 ft | 470 kts | 39° |
| 2026-05-06 00:11 | 40.74582 | -73.59005 | 33611 ft | 455 kts | 39° |
| 2026-05-06 00:12 | 40.76818 | -73.56039 | 32332 ft | 463 kts | 40° |
| 2026-05-06 00:12 | 40.79149 | -73.52975 | 30648 ft | 483 kts | 41° |
| 2026-05-06 00:12 | 40.81568 | -73.49800 | 29081 ft | 496 kts | 41° |
| 2026-05-06 00:12 | 40.84025 | -73.46562 | 27836 ft | 495 kts | 42° |
| 2026-05-06 00:13 | 40.86393 | -73.43391 | 27323 ft | 477 kts | 43° |
| 2026-05-06 00:13 | 40.88651 | -73.40195 | 27085 ft | 474 kts | 45° |
| 2026-05-06 00:13 | 40.90840 | -73.36952 | 26865 ft | 471 kts | 46° |
| 2026-05-06 00:13 | 40.92987 | -73.33696 | 26207 ft | 469 kts | 46° |
| 2026-05-06 00:14 | 40.95116 | -73.30450 | 26088 ft | 466 kts | 46° |
| 2026-05-06 00:14 | 40.97255 | -73.27216 | 26054 ft | 468 kts | 46° |
| 2026-05-06 00:14 | 40.99402 | -73.23995 | 25369 ft | 465 kts | 46° |
| 2026-05-06 00:14 | 41.01537 | -73.20819 | 25081 ft | 460 kts | 45° |
| 2026-05-06 00:15 | 41.03673 | -73.17664 | 24852 ft | 459 kts | 45° |
| 2026-05-06 00:15 | 41.05801 | -73.14520 | 24612 ft | 458 kts | 46° |
| 2026-05-06 00:15 | 41.07922 | -73.11379 | 24378 ft | 457 kts | 46° |
| 2026-05-06 00:15 | 41.10033 | -73.08236 | 24168 ft | 455 kts | 46° |
| 2026-05-06 00:16 | 41.12134 | -73.05105 | 23928 ft | 454 kts | 46° |
| 2026-05-06 00:16 | 41.14228 | -73.01976 | 23706 ft | 453 kts | 46° |
| 2026-05-06 00:16 | 41.16313 | -72.98850 | 23452 ft | 452 kts | 46° |
| 2026-05-06 00:16 | 41.18392 | -72.95728 | 23202 ft | 451 kts | 46° |
| 2026-05-06 00:17 | 41.20421 | -72.92558 | 22974 ft | 450 kts | 51° |
| 2026-05-06 00:17 | 41.22095 | -72.89049 | 22888 ft | 450 kts | 61° |
| 2026-05-06 00:17 | 41.23510 | -72.85330 | 22916 ft | 452 kts | 62° |
| 2026-05-06 00:17 | 41.24933 | -72.81612 | 22914 ft | 452 kts | 61° |
| 2026-05-06 00:18 | 41.26361 | -72.77896 | 22914 ft | 451 kts | 61° |
| 2026-05-06 00:18 | 41.27791 | -72.74178 | 22912 ft | 452 kts | 61° |
| 2026-05-06 00:18 | 41.29215 | -72.70460 | 22911 ft | 452 kts | 62° |
| 2026-05-06 00:18 | 41.30640 | -72.66727 | 22924 ft | 453 kts | 62° |
| 2026-05-06 00:19 | 41.32066 | -72.62985 | 22935 ft | 454 kts | 62° |
| 2026-05-06 00:19 | 41.33490 | -72.59240 | 22926 ft | 454 kts | 62° |
| 2026-05-06 00:19 | 41.34913 | -72.55489 | 22935 ft | 454 kts | 62° |
| 2026-05-06 00:19 | 41.36334 | -72.51739 | 22937 ft | 454 kts | 62° |
| 2026-05-06 00:20 | 41.37752 | -72.47989 | 22937 ft | 453 kts | 62° |
| 2026-05-06 00:20 | 41.39165 | -72.44238 | 22932 ft | 453 kts | 62° |
| 2026-05-06 00:20 | 41.40582 | -72.40482 | 22934 ft | 453 kts | 62° |
| 2026-05-06 00:20 | 41.42001 | -72.36733 | 22931 ft | 453 kts | 62° |
| 2026-05-06 00:21 | 41.43419 | -72.32980 | 22937 ft | 453 kts | 62° |
| 2026-05-06 00:21 | 41.44831 | -72.29229 | 22935 ft | 453 kts | 62° |
| 2026-05-06 00:21 | 41.46243 | -72.25469 | 22930 ft | 453 kts | 62° |
| 2026-05-06 00:21 | 41.47634 | -72.21754 | 22930 ft | 454 kts | 61° |
| 2026-05-06 00:22 | 41.49042 | -72.17982 | 22914 ft | 455 kts | 62° |
| 2026-05-06 00:22 | 41.50452 | -72.14157 | 22708 ft | 450 kts | 62° |
| 2026-05-06 00:22 | 41.51815 | -72.10421 | 21835 ft | 447 kts | 62° |
| 2026-05-06 00:22 | 41.53168 | -72.06699 | 21566 ft | 446 kts | 63° |
| 2026-05-06 00:23 | 41.54518 | -72.02981 | 21305 ft | 445 kts | 63° |
| 2026-05-06 00:23 | 41.55840 | -71.99312 | 21057 ft | 444 kts | 64° |
| 2026-05-06 00:23 | 41.57086 | -71.95552 | 20814 ft | 442 kts | 66° |
| 2026-05-06 00:23 | 41.58239 | -71.91749 | 20568 ft | 441 kts | 68° |
| 2026-05-06 00:24 | 41.59340 | -71.87927 | 20314 ft | 440 kts | 69° |
| 2026-05-06 00:24 | 41.60420 | -71.84109 | 20074 ft | 439 kts | 69° |
| 2026-05-06 00:24 | 41.61498 | -71.80307 | 19823 ft | 437 kts | 69° |
| 2026-05-06 00:24 | 41.62587 | -71.76522 | 19575 ft | 435 kts | 68° |
| 2026-05-06 00:25 | 41.63687 | -71.72762 | 19324 ft | 434 kts | 68° |
| 2026-05-06 00:25 | 41.64785 | -71.69035 | 19105 ft | 426 kts | 68° |
| 2026-05-06 00:25 | 41.65860 | -71.65396 | 18869 ft | 416 kts | 68° |
| 2026-05-06 00:25 | 41.66910 | -71.61843 | 18631 ft | 407 kts | 68° |
| 2026-05-06 00:26 | 41.67936 | -71.58365 | 18398 ft | 398 kts | 68° |
| 2026-05-06 00:26 | 41.68939 | -71.54956 | 18141 ft | 389 kts | 69° |
| 2026-05-06 00:26 | 41.69918 | -71.51622 | 17894 ft | 381 kts | 69° |
| 2026-05-06 00:26 | 41.70874 | -71.48352 | 17598 ft | 375 kts | 69° |
| 2026-05-06 00:27 | 41.71819 | -71.45104 | 17115 ft | 375 kts | 69° |
| 2026-05-06 00:27 | 41.72891 | -71.41944 | 16675 ft | 373 kts | 59° |
| 2026-05-06 00:27 | 41.74171 | -71.38947 | 16338 ft | 369 kts | 59° |
| 2026-05-06 00:27 | 41.75451 | -71.35962 | 15864 ft | 369 kts | 59° |
| 2026-05-06 00:28 | 41.76721 | -71.32999 | 15549 ft | 365 kts | 59° |
| 2026-05-06 00:28 | 41.77982 | -71.30056 | 15164 ft | 363 kts | 59° |
| 2026-05-06 00:28 | 41.79235 | -71.27128 | 14788 ft | 362 kts | 59° |
| 2026-05-06 00:28 | 41.80483 | -71.24213 | 14376 ft | 357 kts | 59° |
| 2026-05-06 00:29 | 41.81700 | -71.21359 | 13920 ft | 348 kts | 59° |
| 2026-05-06 00:29 | 41.82887 | -71.18568 | 13325 ft | 343 kts | 59° |
| 2026-05-06 00:29 | 41.84066 | -71.15789 | 12858 ft | 342 kts | 59° |
| 2026-05-06 00:29 | 41.85228 | -71.13041 | 12362 ft | 337 kts | 59° |
| 2026-05-06 00:30 | 41.86380 | -71.10328 | 11910 ft | 330 kts | 59° |
| 2026-05-06 00:30 | 41.87528 | -71.07656 | 11806 ft | 331 kts | 59° |
| 2026-05-06 00:30 | 41.88686 | -71.04987 | 11667 ft | 332 kts | 59° |
| 2026-05-06 00:30 | 41.89848 | -71.02319 | 11519 ft | 331 kts | 59° |
| 2026-05-06 00:31 | 41.91005 | -70.99657 | 11369 ft | 329 kts | 59° |
| 2026-05-06 00:31 | 41.92159 | -70.97002 | 11217 ft | 329 kts | 59° |
| 2026-05-06 00:31 | 41.93290 | -70.94387 | 11070 ft | 328 kts | 59° |
| 2026-05-06 00:31 | 41.94431 | -70.91734 | 10922 ft | 327 kts | 59° |
| 2026-05-06 00:32 | 41.95563 | -70.89090 | 10777 ft | 327 kts | 59° |
| 2026-05-06 00:32 | 41.96695 | -70.86446 | 10622 ft | 326 kts | 59° |
| 2026-05-06 00:32 | 41.97826 | -70.83799 | 10488 ft | 326 kts | 59° |
| 2026-05-06 00:32 | 41.98970 | -70.81119 | 10343 ft | 326 kts | 59° |
| 2026-05-06 00:33 | 42.00083 | -70.78517 | 10203 ft | 325 kts | 59° |
| 2026-05-06 00:33 | 42.01293 | -70.75966 | 10046 ft | 323 kts | 50° |
| 2026-05-06 00:33 | 42.02770 | -70.73692 | 9693 ft | 322 kts | 46° |
| 2026-05-06 00:33 | 42.04263 | -70.71466 | 9381 ft | 320 kts | 46° |
| 2026-05-06 00:34 | 42.05754 | -70.69243 | 9071 ft | 319 kts | 46° |
| 2026-05-06 00:34 | 42.07239 | -70.67023 | 8761 ft | 319 kts | 46° |
| 2026-05-06 00:34 | 42.08718 | -70.64803 | 8466 ft | 318 kts | 46° |
| 2026-05-06 00:34 | 42.10326 | -70.62795 | 8167 ft | 314 kts | 32° |
| 2026-05-06 00:35 | 42.12219 | -70.61400 | 7872 ft | 308 kts | 16° |
| 2026-05-06 00:35 | 42.13591 | -70.60840 | 7668 ft | 303 kts | 6° |
| 2026-05-06 00:35 | 42.15651 | -70.60280 | 7386 ft | 302 kts | 5° |
| 2026-05-06 00:35 | 42.17680 | -70.59722 | 7112 ft | 301 kts | 5° |
| 2026-05-06 00:36 | 42.19754 | -70.59145 | 6802 ft | 300 kts | 5° |
| 2026-05-06 00:36 | 42.21771 | -70.58581 | 6518 ft | 300 kts | 5° |
| 2026-05-06 00:36 | 42.23810 | -70.58009 | 6221 ft | 298 kts | 5° |
| 2026-05-06 00:36 | 42.25837 | -70.57439 | 5926 ft | 297 kts | 5° |
| 2026-05-06 00:37 | 42.27865 | -70.56873 | 5641 ft | 297 kts | 5° |
| 2026-05-06 00:37 | 42.29891 | -70.56372 | 5361 ft | 293 kts | 357° |
| 2026-05-06 00:37 | 42.31869 | -70.56533 | 5106 ft | 279 kts | 338° |
| 2026-05-06 00:37 | 42.33643 | -70.57421 | 5006 ft | 267 kts | 322° |
| 2026-05-06 00:38 | 42.35120 | -70.58867 | 5017 ft | 258 kts | 308° |
| 2026-05-06 00:38 | 42.36407 | -70.60548 | 5031 ft | 257 kts | 307° |
| 2026-05-06 00:38 | 42.37692 | -70.62233 | 5011 ft | 257 kts | 307° |
| 2026-05-06 00:38 | 42.38971 | -70.63913 | 5008 ft | 256 kts | 307° |
| 2026-05-06 00:39 | 42.40244 | -70.65590 | 5008 ft | 256 kts | 307° |
| 2026-05-06 00:39 | 42.41520 | -70.67270 | 4998 ft | 256 kts | 307° |
| 2026-05-06 00:39 | 42.42796 | -70.68950 | 4999 ft | 256 kts | 307° |
| 2026-05-06 00:39 | 42.44074 | -70.70632 | 4999 ft | 257 kts | 308° |
| 2026-05-06 00:40 | 42.45354 | -70.72316 | 4999 ft | 257 kts | 308° |
| 2026-05-06 00:40 | 42.46635 | -70.74003 | 4978 ft | 257 kts | 308° |
| 2026-05-06 00:40 | 42.47920 | -70.75669 | 4585 ft | 255 kts | 308° |
| 2026-05-06 00:40 | 42.49208 | -70.77326 | 4139 ft | 255 kts | 308° |
| 2026-05-06 00:41 | 42.50494 | -70.78979 | 3696 ft | 255 kts | 308° |
| 2026-05-06 00:41 | 42.51785 | -70.80623 | 3270 ft | 254 kts | 308° |
| 2026-05-06 00:41 | 42.53079 | -70.82240 | 3014 ft | 252 kts | 308° |
| 2026-05-06 00:41 | 42.54355 | -70.83866 | 2994 ft | 248 kts | 302° |
| 2026-05-06 00:42 | 42.55378 | -70.85615 | 2993 ft | 226 kts | 296° |
| 2026-05-06 00:42 | 42.56277 | -70.87264 | 2995 ft | 210 kts | 296° |
| 2026-05-06 00:42 | 42.57076 | -70.88879 | 2999 ft | 199 kts | 282° |
| 2026-05-06 00:42 | 42.57124 | -70.90602 | 2997 ft | 180 kts | 242° |
| 2026-05-06 00:43 | 42.56198 | -70.91691 | 2997 ft | 189 kts | 200° |
| 2026-05-06 00:43 | 42.54840 | -70.91742 | 2996 ft | 199 kts | 190° |
| 2026-05-06 00:43 | 42.53564 | -70.92164 | 2996 ft | 187 kts | 210° |
| 2026-05-06 00:43 | 42.52347 | -70.92808 | 2993 ft | 184 kts | 206° |
| 2026-05-06 00:44 | 42.51185 | -70.93373 | 2835 ft | 174 kts | 207° |
| 2026-05-06 00:44 | 42.50089 | -70.93905 | 2624 ft | 161 kts | 208° |
| 2026-05-06 00:44 | 42.49083 | -70.94392 | 2441 ft | 147 kts | 207° |
| 2026-05-06 00:44 | 42.48153 | -70.94847 | 2236 ft | 140 kts | 207° |
| 2026-05-06 00:45 | 42.47247 | -70.95288 | 2051 ft | 136 kts | 207° |
| 2026-05-06 00:45 | 42.46362 | -70.95719 | 1879 ft | 136 kts | 206° |
| 2026-05-06 00:45 | 42.45467 | -70.96155 | 1697 ft | 133 kts | 205° |
| 2026-05-06 00:45 | 42.44622 | -70.96564 | 1523 ft | 126 kts | 205° |
| 2026-05-06 00:46 | 42.43793 | -70.96967 | 1355 ft | 125 kts | 204° |
| 2026-05-06 00:46 | 42.42977 | -70.97364 | 1201 ft | 124 kts | 204° |
| 2026-05-06 00:46 | 42.42169 | -70.97756 | 1026 ft | 123 kts | 204° |
| 2026-05-06 00:46 | 42.41359 | -70.98149 | 871 ft | 125 kts | 202° |
| 2026-05-06 00:47 | 42.40541 | -70.98548 | 689 ft | 130 kts | 200° |
| 2026-05-06 00:47 | 42.39706 | -70.98956 | 555 ft | 128 kts | 198° |
| 2026-05-06 00:47 | 42.38874 | -70.99355 | 369 ft | 126 kts | 199° |
| 2026-05-06 00:47 | 42.38064 | -70.99746 | 209 ft | 124 kts | 199° |
| 2026-05-06 00:48 | 42.37252 | -71.00141 | 54 ft | 124 kts | 198° |
| 2026-05-06 00:48 | 42.36528 | -71.00481 | 29 ft | 85 kts | 200° |
| 2026-05-06 00:48 | 42.36131 | -71.00678 | 22 ft | 39 kts | 199° |
| 2026-05-06 00:48 | 42.35906 | -71.00793 | 22 ft | 30 kts | 198° |
| 2026-05-06 00:49 | 42.35737 | -71.00873 | 23 ft | 21 kts | 204° |
| 2026-05-06 00:49 | 42.35646 | -71.00969 | 23 ft | 19 kts | 253° |
| 2026-05-06 00:49 | 42.35672 | -71.01170 | 26 ft | 27 kts | 303° |
| 2026-05-06 00:49 | 42.35733 | -71.01271 | 29 ft | 0 kts | 314° |
| 2026-05-06 00:50 | 42.35733 | -71.01272 | 29 ft | 0 kts | 314° |
| 2026-05-06 00:50 | 42.35754 | -71.01359 | 28 ft | 21 kts | 279° |
| 2026-05-06 00:50 | 42.35807 | -71.01545 | 30 ft | 11 kts | 296° |
| 2026-05-06 00:51 | 42.35813 | -71.01559 | 30 ft | 0 kts | 297° |
| 2026-05-06 00:51 | 42.35854 | -71.01570 | 30 ft | 13 kts | 0° |
| 2026-05-06 00:51 | 42.35906 | -71.01613 | 31 ft | 6 kts | 322° |
| 2026-05-06 00:52 | 42.35942 | -71.01618 | 30 ft | 6 kts | 9° |
| 2026-05-06 00:52 | 42.35979 | -71.01603 | 30 ft | 0 kts | 17° |
| 2026-05-06 00:52 | 42.35990 | -71.01598 | 29 ft | 4 kts | 17° |
| 2026-05-06 00:53 | 42.36027 | -71.01606 | 28 ft | 7 kts | 319° |
| 2026-05-06 00:53 | 42.36035 | -71.01664 | 28 ft | 5 kts | 280° |
| 2026-05-06 00:53 | 42.36044 | -71.01698 | 27 ft | 0 kts | 289° |